createdAt,value
2023-03-15T00:00:06.584Z,4
2023-03-15T00:01:06.396Z,4
2023-03-15T00:02:06.916Z,4.1
2023-03-15T00:03:05.852Z,4.1
2023-03-15T00:04:06.264Z,4.1
2023-03-15T00:05:06.325Z,4.1
2023-03-15T00:06:06.279Z,4.1
2023-03-15T00:07:06.468Z,4.1
2023-03-15T00:08:08.844Z,4.1
2023-03-15T00:09:05.909Z,4.1
2023-03-15T00:10:06.182Z,4.1
2023-03-15T00:11:06.062Z,4.1
2023-03-15T00:12:06.343Z,4.1
2023-03-15T00:13:06.581Z,4.1
2023-03-15T00:14:05.946Z,4.1
2023-03-15T00:15:06.171Z,4.2
2023-03-15T00:16:06.252Z,4.2
2023-03-15T00:17:06.608Z,4.1
2023-03-15T00:18:05.825Z,4.2
2023-03-15T00:19:06.110Z,4.1
2023-03-15T00:20:05.999Z,4
2023-03-15T00:21:06.401Z,4.2
2023-03-15T00:22:06.695Z,4.2
2023-03-15T00:23:06.124Z,4.2
2023-03-15T00:24:06.434Z,4.2
2023-03-15T00:25:06.557Z,4.2
2023-03-15T00:26:05.853Z,4.2
2023-03-15T00:27:06.243Z,4.2
2023-03-15T00:28:06.506Z,4.2
2023-03-15T00:29:06.720Z,4.2
2023-03-15T00:30:06.017Z,4.2
2023-03-15T00:31:06.473Z,4.2
2023-03-15T00:32:06.587Z,4.2
2023-03-15T00:33:05.723Z,4
2023-03-15T00:34:06.131Z,4.2
2023-03-15T00:35:06.282Z,4.2
2023-03-15T00:36:06.683Z,4.3
2023-03-15T00:37:05.842Z,4.2
2023-03-15T00:38:06.177Z,4.2
2023-03-15T00:39:06.514Z,4
2023-03-15T00:40:06.845Z,4.2
2023-03-15T00:41:06.209Z,4
2023-03-15T00:42:06.707Z,4.2
2023-03-15T00:43:06.690Z,4.2
2023-03-15T00:44:06.265Z,4.2
2023-03-15T00:45:06.344Z,4.2
2023-03-15T00:46:06.990Z,4.2
2023-03-15T00:47:05.953Z,4.2
2023-03-15T00:48:06.186Z,4.1
2023-03-15T00:49:06.597Z,4.1
2023-03-15T00:50:05.878Z,4.2
2023-03-15T00:51:06.368Z,4.1
2023-03-15T00:52:07.048Z,4.1
2023-03-15T00:53:06.058Z,4.1
2023-03-15T00:54:06.359Z,4.1
2023-03-15T00:55:07.008Z,4.1
2023-03-15T00:56:06.110Z,4.1
2023-03-15T00:57:06.146Z,4.1
2023-03-15T00:58:07.005Z,4.1
2023-03-15T00:59:06.596Z,4.2
2023-03-15T01:00:05.725Z,4.1
2023-03-15T01:01:06.484Z,4.1
2023-03-15T01:02:06.907Z,4.1
2023-03-15T01:03:05.967Z,4.1
2023-03-15T01:04:06.182Z,4
2023-03-15T01:05:06.222Z,4.1
2023-03-15T01:06:05.884Z,4.1
2023-03-15T01:07:06.194Z,4.1
2023-03-15T01:08:06.689Z,4.1
2023-03-15T01:09:05.606Z,4.1
2023-03-15T01:10:06.120Z,4.1
2023-03-15T01:11:06.467Z,4.1
2023-03-15T01:12:06.691Z,4.1
2023-03-15T01:13:06.020Z,4.1
2023-03-15T01:14:06.293Z,4.1
2023-03-15T01:15:06.540Z,4.2
2023-03-15T01:16:06.351Z,4.1
2023-03-15T01:17:06.388Z,4.1
2023-03-15T01:18:06.851Z,4.1
2023-03-15T01:19:05.801Z,4.1
2023-03-15T01:20:06.112Z,4.2
2023-03-15T01:21:06.299Z,4.1
2023-03-15T01:22:06.606Z,4.1
2023-03-15T01:23:06.005Z,4.1
2023-03-15T01:24:06.232Z,4.1
2023-03-15T01:25:06.588Z,4.1
2023-03-15T01:26:06.888Z,4.1
2023-03-15T01:27:06.261Z,4
2023-03-15T01:28:06.393Z,4
2023-03-15T01:29:06.661Z,4.1
2023-03-15T01:30:06.931Z,4.1
2023-03-15T01:31:06.085Z,4.1
2023-03-15T01:32:06.291Z,4.1
2023-03-15T01:33:06.252Z,4.1
2023-03-15T01:34:06.946Z,4
2023-03-15T01:35:06.019Z,4.1
2023-03-15T01:36:06.297Z,4.1
2023-03-15T01:37:06.535Z,4.1
2023-03-15T01:38:06.910Z,4.1
2023-03-15T01:39:05.835Z,4.1
2023-03-15T01:40:06.376Z,4.1
2023-03-15T01:41:06.101Z,4.1
2023-03-15T01:42:06.772Z,4.1
2023-03-15T01:43:06.044Z,4.1
2023-03-15T01:44:05.990Z,4.1
2023-03-15T01:45:06.328Z,4.1
2023-03-15T01:46:06.920Z,4
2023-03-15T01:47:05.993Z,4.1
2023-03-15T01:48:06.181Z,4
2023-03-15T01:49:06.327Z,4.1
2023-03-15T01:50:06.332Z,4.1
2023-03-15T01:51:05.974Z,4.1
2023-03-15T01:52:06.112Z,4.1
2023-03-15T01:53:06.358Z,4.1
2023-03-15T01:54:06.958Z,4.1
2023-03-15T01:55:06.157Z,4.1
2023-03-15T01:56:06.358Z,4.1
2023-03-15T01:57:06.676Z,4.1
2023-03-15T01:58:05.894Z,4
2023-03-15T01:59:05.970Z,4
2023-03-15T02:00:06.334Z,4
2023-03-15T02:01:06.179Z,4
2023-03-15T02:02:06.674Z,4
2023-03-15T02:03:06.407Z,4
2023-03-15T02:04:06.003Z,4
2023-03-15T02:05:06.203Z,3
2023-03-15T02:06:06.204Z,3.9
2023-03-15T02:07:06.476Z,3.9
2023-03-15T02:08:06.838Z,3.8
2023-03-15T02:09:05.962Z,3.9
2023-03-15T02:10:06.135Z,3.8
2023-03-15T02:11:05.997Z,3.8
2023-03-15T02:12:06.500Z,3.8
2023-03-15T02:13:06.600Z,3.7
2023-03-15T02:14:06.892Z,3.7
2023-03-15T02:15:06.030Z,3.7
2023-03-15T02:16:06.560Z,3.7
2023-03-15T02:17:06.596Z,3.6
2023-03-15T02:18:05.922Z,3.7
2023-03-15T02:19:06.075Z,3.6
2023-03-15T02:20:06.527Z,3.6
2023-03-15T02:21:06.743Z,3.6
2023-03-15T02:22:05.834Z,3.6
2023-03-15T02:23:06.014Z,3.6
2023-03-15T02:24:06.257Z,3.6
2023-03-15T02:25:06.752Z,3.6
2023-03-15T02:26:06.050Z,3.6
2023-03-15T02:27:06.276Z,3
2023-03-15T02:28:06.516Z,3
2023-03-15T02:29:06.833Z,3.5
2023-03-15T02:30:06.012Z,3.5
2023-03-15T02:31:06.504Z,3.5
2023-03-15T02:32:06.907Z,3.5
2023-03-15T02:33:06.554Z,3.5
2023-03-15T02:34:05.895Z,3.5
2023-03-15T02:35:06.333Z,3.5
2023-03-15T02:36:06.594Z,3.5
2023-03-15T02:37:06.687Z,3.4
2023-03-15T02:38:05.932Z,3.4
2023-03-15T02:39:06.063Z,3.4
2023-03-15T02:40:06.517Z,3.4
2023-03-15T02:41:06.078Z,3.3
2023-03-15T02:42:06.532Z,3.3
2023-03-15T02:43:06.596Z,3.2
2023-03-15T02:44:06.033Z,3.2
2023-03-15T02:45:06.191Z,3.2
2023-03-15T02:46:06.261Z,3.2
2023-03-15T02:47:06.179Z,3
2023-03-15T02:48:06.344Z,3
2023-03-15T02:49:06.702Z,3
2023-03-15T02:50:05.918Z,2.9
2023-03-15T02:51:06.351Z,2.9
2023-03-15T02:52:06.649Z,2
2023-03-15T02:53:06.505Z,2.8
2023-03-15T02:54:06.002Z,2.7
2023-03-15T02:55:05.929Z,2.6
2023-03-15T02:56:06.230Z,2.6
2023-03-15T02:57:06.480Z,2.5
2023-03-15T02:58:06.909Z,2.5
2023-03-15T02:59:05.950Z,2.4
2023-03-15T03:00:06.236Z,2.4
2023-03-15T03:01:06.513Z,2.3
2023-03-15T03:02:06.698Z,1
2023-03-15T03:03:06.851Z,2.2
2023-03-15T03:04:06.118Z,2.2
2023-03-15T03:05:06.046Z,2.2
2023-03-15T03:06:06.799Z,2.2
2023-03-15T03:07:05.975Z,2.1
2023-03-15T03:08:06.186Z,2.1
2023-03-15T03:09:06.471Z,2
2023-03-15T03:10:06.450Z,2
2023-03-15T03:11:06.129Z,2
2023-03-15T03:12:06.244Z,2
2023-03-15T03:13:06.655Z,2
2023-03-15T03:14:06.809Z,2
2023-03-15T03:15:06.158Z,1.9
2023-03-15T03:16:06.640Z,1.9
2023-03-15T03:17:06.897Z,1.9
2023-03-15T03:18:06.125Z,1.9
2023-03-15T03:19:06.144Z,1.9
2023-03-15T03:20:06.501Z,1.9
2023-03-15T03:21:06.487Z,1.9
2023-03-15T03:22:06.174Z,1.9
2023-03-15T03:23:06.058Z,1.8
2023-03-15T03:24:06.136Z,1.9
2023-03-15T03:25:06.702Z,1.9
2023-03-15T03:26:06.100Z,1.8
2023-03-15T03:27:06.375Z,1.8
2023-03-15T03:28:06.581Z,1.8
2023-03-15T03:29:05.728Z,1.8
2023-03-15T03:30:05.974Z,1.8
2023-03-15T03:31:06.690Z,1.8
2023-03-15T03:32:06.494Z,1.8
2023-03-15T03:33:05.857Z,1.8
2023-03-15T03:34:06.188Z,1.8
2023-03-15T03:35:06.432Z,1.8
2023-03-15T03:36:05.963Z,1.8
2023-03-15T03:37:06.020Z,1.8
2023-03-15T03:38:06.214Z,1.8
2023-03-15T03:39:06.221Z,1.8
2023-03-15T03:40:06.471Z,1.8
2023-03-15T03:41:06.839Z,1.8
2023-03-15T03:42:05.866Z,1.8
2023-03-15T03:43:06.212Z,1.8
2023-03-15T03:44:06.653Z,1.8
2023-03-15T03:45:06.745Z,1.7
2023-03-15T03:46:06.912Z,1.8
2023-03-15T03:47:06.028Z,1.7
2023-03-15T03:48:06.041Z,1.7
2023-03-15T03:49:06.577Z,1.7
2023-03-15T03:50:06.727Z,1.8
2023-03-15T03:51:05.768Z,1.7
2023-03-15T03:52:06.169Z,1.7
2023-03-15T03:53:06.470Z,1.7
2023-03-15T03:54:06.577Z,1.7
2023-03-15T03:55:05.964Z,1.7
2023-03-15T03:56:06.488Z,1.7
2023-03-15T03:57:06.606Z,1.7
2023-03-15T03:58:05.893Z,1.7
2023-03-15T03:59:06.654Z,1.7
2023-03-15T04:00:06.506Z,1.7
2023-03-15T04:01:05.934Z,1.7
2023-03-15T04:02:06.073Z,1.7
2023-03-15T04:03:06.441Z,1.7
2023-03-15T04:04:06.914Z,1.7
2023-03-15T04:05:05.760Z,1.7
2023-03-15T04:06:06.414Z,1.7
2023-03-15T04:07:06.504Z,1.7
2023-03-15T04:08:06.654Z,1.6
2023-03-15T04:09:05.890Z,1.6
2023-03-15T04:10:06.095Z,1.6
2023-03-15T04:11:06.343Z,1.6
2023-03-15T04:12:06.199Z,1.6
2023-03-15T04:13:06.217Z,1.6
2023-03-15T04:14:06.415Z,1.6
2023-03-15T04:15:05.940Z,1.6
2023-03-15T04:16:06.443Z,1
2023-03-15T04:17:06.257Z,1.6
2023-03-15T04:18:06.265Z,1.6
2023-03-15T04:19:06.377Z,1.6
2023-03-15T04:20:05.963Z,1.6
2023-03-15T04:21:05.970Z,1.6
2023-03-15T04:22:06.497Z,1
2023-03-15T04:23:06.731Z,1.6
2023-03-15T04:24:06.125Z,1.6
2023-03-15T04:25:06.456Z,1.6
2023-03-15T04:26:05.915Z,1
2023-03-15T04:27:06.222Z,1
2023-03-15T04:28:06.411Z,1.6
2023-03-15T04:29:06.489Z,1.6
2023-03-15T04:30:06.711Z,1.6
2023-03-15T04:31:06.907Z,1.6
2023-03-15T04:32:05.972Z,1.6
2023-03-15T04:33:06.107Z,1.6
2023-03-15T04:34:06.390Z,1.6
2023-03-15T04:35:06.670Z,1.6
2023-03-15T04:36:07.098Z,1.6
2023-03-15T04:37:06.154Z,1.5
2023-03-15T04:38:06.303Z,1.6
2023-03-15T04:39:06.668Z,1.5
2023-03-15T04:40:06.071Z,1.5
2023-03-15T04:41:06.258Z,1.5
2023-03-15T04:42:06.484Z,1.5
2023-03-15T04:43:06.516Z,1.5
2023-03-15T04:44:05.763Z,1.5
2023-03-15T04:45:06.151Z,1.5
2023-03-15T04:46:06.528Z,1.5
2023-03-15T04:47:06.798Z,1.5
2023-03-15T04:48:05.915Z,1.5
2023-03-15T04:49:06.001Z,1
2023-03-15T04:50:06.367Z,1.5
2023-03-15T04:51:06.369Z,1.5
2023-03-15T04:52:06.699Z,1.5
2023-03-15T04:53:05.882Z,1
2023-03-15T04:54:06.519Z,1.5
2023-03-15T04:55:05.838Z,1.5
2023-03-15T04:56:08.869Z,1.4
2023-03-15T04:57:06.301Z,1.5
2023-03-15T04:58:06.719Z,1.4
2023-03-15T04:59:05.905Z,1.4
2023-03-15T05:00:06.278Z,1.4
2023-03-15T05:01:06.592Z,1.4
2023-03-15T05:02:08.287Z,1.4
2023-03-15T05:03:06.026Z,1.4
2023-03-15T05:04:05.918Z,1.4
2023-03-15T05:05:06.536Z,1.4
2023-03-15T05:06:06.681Z,1.4
2023-03-15T05:07:05.763Z,1.4
2023-03-15T05:08:06.284Z,1.4
2023-03-15T05:09:06.425Z,1.4
2023-03-15T05:10:06.720Z,1.4
2023-03-15T05:11:05.842Z,1
2023-03-15T05:12:06.026Z,1.4
2023-03-15T05:13:06.270Z,1.4
2023-03-15T05:14:06.734Z,1.4
2023-03-15T05:15:06.186Z,1.4
2023-03-15T05:16:06.184Z,1.3
2023-03-15T05:17:06.543Z,1.3
2023-03-15T05:18:06.793Z,1.4
2023-03-15T05:19:05.961Z,1.3
2023-03-15T05:20:06.340Z,1.4
2023-03-15T05:21:06.732Z,1.3
2023-03-15T05:22:05.944Z,1.3
2023-03-15T05:23:06.210Z,1.3
2023-03-15T05:24:06.667Z,1.3
2023-03-15T05:25:06.761Z,1.3
2023-03-15T05:26:05.883Z,1.3
2023-03-15T05:27:06.044Z,1.3
2023-03-15T05:28:06.550Z,1.3
2023-03-15T05:29:06.630Z,1.4
2023-03-15T05:30:05.683Z,1.4
2023-03-15T05:31:06.575Z,1.4
2023-03-15T05:32:07.175Z,1.4
2023-03-15T05:33:06.032Z,1.4
2023-03-15T05:34:05.989Z,1
2023-03-15T05:35:06.509Z,1.4
2023-03-15T05:36:06.313Z,1.4
2023-03-15T05:37:05.892Z,1.4
2023-03-15T05:38:06.145Z,1.4
2023-03-15T05:39:06.349Z,1.4
2023-03-15T05:40:06.434Z,1.4
2023-03-15T05:41:06.168Z,1.4
2023-03-15T05:42:06.803Z,1.4
2023-03-15T05:43:06.008Z,1.4
2023-03-15T05:44:06.126Z,1.4
2023-03-15T05:45:06.718Z,1.4
2023-03-15T05:46:06.117Z,1.4
2023-03-15T05:47:06.231Z,1.5
2023-03-15T05:48:06.598Z,1.5
2023-03-15T05:49:06.646Z,1.5
2023-03-15T05:50:06.264Z,1
2023-03-15T05:51:06.284Z,1.5
2023-03-15T05:52:06.606Z,1.5
2023-03-15T05:53:06.550Z,1.5
2023-03-15T05:54:06.056Z,1.5
2023-03-15T05:55:06.014Z,1.5
2023-03-15T05:56:06.598Z,1.5
2023-03-15T05:57:05.945Z,1.5
2023-03-15T05:58:05.862Z,1
2023-03-15T05:59:06.212Z,1.6
2023-03-15T06:00:06.574Z,1.6
2023-03-15T06:01:05.873Z,1.6
2023-03-15T06:02:06.303Z,1.5
2023-03-15T06:03:06.501Z,1.6
2023-03-15T06:04:06.636Z,1.6
2023-03-15T06:05:05.547Z,1.6
2023-03-15T06:06:06.001Z,1.6
2023-03-15T06:07:05.953Z,1.5
2023-03-15T06:08:06.126Z,1.5
2023-03-15T06:09:06.703Z,1.6
2023-03-15T06:10:05.770Z,1.5
2023-03-15T06:11:05.919Z,1.6
2023-03-15T06:12:06.084Z,1.6
2023-03-15T06:13:06.608Z,1.5
2023-03-15T06:14:05.832Z,1.5
2023-03-15T06:15:06.116Z,1.5
2023-03-15T06:16:06.403Z,1.5
2023-03-15T06:17:06.507Z,1.5
2023-03-15T06:18:05.889Z,1
2023-03-15T06:19:06.166Z,1.5
2023-03-15T06:20:06.551Z,1.5
2023-03-15T06:21:06.038Z,1
2023-03-15T06:22:06.316Z,1.5
2023-03-15T06:23:06.382Z,1.4
2023-03-15T06:24:06.445Z,1.4
2023-03-15T06:25:05.784Z,1.4
2023-03-15T06:26:06.117Z,1.4
2023-03-15T06:27:06.305Z,1.4
2023-03-15T06:28:06.700Z,1.4
2023-03-15T06:29:06.746Z,1.4
2023-03-15T06:30:05.896Z,1.5
2023-03-15T06:31:06.029Z,1.5
2023-03-15T06:32:06.633Z,1.5
2023-03-15T06:33:06.750Z,1.5
2023-03-15T06:34:05.799Z,1
2023-03-15T06:35:06.359Z,1.5
2023-03-15T06:36:06.775Z,1.5
2023-03-15T06:37:06.654Z,1.5
2023-03-15T06:38:06.118Z,1.5
2023-03-15T06:39:06.409Z,1.5
2023-03-15T06:40:06.434Z,1.5
2023-03-15T06:41:05.974Z,1.6
2023-03-15T06:42:06.224Z,1.6
2023-03-15T06:43:06.535Z,1.6
2023-03-15T06:44:05.781Z,1.6
2023-03-15T06:45:06.120Z,1.6
2023-03-15T06:46:06.456Z,1.6
2023-03-15T06:47:06.581Z,1.6
2023-03-15T06:48:06.337Z,1.6
2023-03-15T06:49:06.519Z,1.6
2023-03-15T06:50:05.871Z,1.6
2023-03-15T06:51:06.256Z,1.6
2023-03-15T06:52:06.600Z,1.7
2023-03-15T06:53:05.820Z,1.7
2023-03-15T06:54:05.927Z,1.6
2023-03-15T06:55:06.464Z,1.6
2023-03-15T06:56:05.752Z,1.6
2023-03-15T06:57:06.028Z,1.7
2023-03-15T06:58:06.345Z,1.6
2023-03-15T06:59:06.545Z,1.7
2023-03-15T07:00:06.046Z,1.7
2023-03-15T07:01:06.284Z,1.7
2023-03-15T07:02:06.329Z,1.7
2023-03-15T07:03:06.687Z,1.7
2023-03-15T07:04:08.249Z,1
2023-03-15T07:05:06.060Z,1.8
2023-03-15T07:07:05.925Z,1.8
2023-03-15T07:08:06.044Z,1.8
2023-03-15T07:09:06.523Z,1.8
2023-03-15T07:10:06.589Z,1.9
2023-03-15T07:11:06.232Z,1.9
2023-03-15T07:12:06.311Z,1.9
2023-03-15T07:13:06.238Z,1.8
2023-03-15T07:14:06.479Z,1.9
2023-03-15T07:15:06.758Z,1.8
2023-03-15T07:16:06.550Z,1.8
2023-03-15T07:17:06.422Z,1.8
2023-03-15T07:18:06.548Z,1.9
2023-03-15T07:19:05.815Z,1.9
2023-03-15T07:20:06.148Z,2
2023-03-15T07:21:06.319Z,1.9
2023-03-15T07:22:06.798Z,1.9
2023-03-15T07:23:06.059Z,1
2023-03-15T07:24:06.003Z,2
2023-03-15T07:25:06.539Z,2
2023-03-15T07:26:05.954Z,2
2023-03-15T07:27:06.142Z,2
2023-03-15T07:28:06.153Z,2
2023-03-15T07:29:06.599Z,2
2023-03-15T07:30:06.002Z,2
2023-03-15T07:31:06.327Z,2
2023-03-15T07:32:06.785Z,2.1
2023-03-15T07:33:06.303Z,2.1
2023-03-15T07:34:06.274Z,2.2
2023-03-15T07:35:06.548Z,2.2
2023-03-15T07:36:06.077Z,2.2
2023-03-15T07:37:06.263Z,2.2
2023-03-15T07:38:06.327Z,2.3
2023-03-15T07:39:05.965Z,2.3
2023-03-15T07:40:06.123Z,2.3
2023-03-15T07:41:06.063Z,1
2023-03-15T07:42:06.673Z,2.3
2023-03-15T07:43:05.776Z,1
2023-03-15T07:44:06.033Z,2.3
2023-03-15T07:45:06.223Z,2.3
2023-03-15T07:46:05.739Z,2.3
2023-03-15T07:47:06.150Z,2.3
2023-03-15T07:48:06.477Z,2.3
2023-03-15T07:49:06.577Z,2.3
2023-03-15T07:50:06.003Z,2.3
2023-03-15T07:51:06.802Z,2.3
2023-03-15T07:52:06.536Z,2.3
2023-03-15T07:53:05.989Z,2.3
2023-03-15T07:54:06.340Z,2.3
2023-03-15T07:55:06.478Z,2.3
2023-03-15T07:56:06.355Z,2.3
2023-03-15T07:57:06.885Z,2.3
2023-03-15T07:58:06.052Z,2.3
2023-03-15T07:59:06.228Z,2.3
2023-03-15T08:00:06.654Z,2.3
2023-03-15T08:01:06.710Z,2.4
2023-03-15T08:02:07.602Z,2.4
2023-03-15T08:03:06.044Z,2.4
2023-03-15T08:04:06.590Z,2.3
2023-03-15T08:05:06.524Z,2.3
2023-03-15T08:06:06.459Z,2.4
2023-03-15T08:07:05.798Z,1
2023-03-15T08:08:06.053Z,2.5
2023-03-15T08:09:06.540Z,2.5
2023-03-15T08:10:06.828Z,2.5
2023-03-15T08:11:05.934Z,2.5
2023-03-15T08:12:06.316Z,2.6
2023-03-15T08:13:06.518Z,2.5
2023-03-15T08:14:06.007Z,2.6
2023-03-15T08:15:06.037Z,2.5
2023-03-15T08:16:06.539Z,2.5
2023-03-15T08:17:05.687Z,2.6
2023-03-15T08:18:08.502Z,2.6
2023-03-15T08:19:06.092Z,2.6
2023-03-15T08:20:06.557Z,2.6
2023-03-15T08:21:06.739Z,2.6
2023-03-15T08:22:06.043Z,2.6
2023-03-15T08:23:06.118Z,2.6
2023-03-15T08:24:06.397Z,2.7
2023-03-15T08:25:06.773Z,2.7
2023-03-15T08:26:06.201Z,2.7
2023-03-15T08:27:06.653Z,2.7
2023-03-15T08:28:06.456Z,2.8
2023-03-15T08:29:05.834Z,2.8
2023-03-15T08:30:06.470Z,2.7
2023-03-15T08:31:06.492Z,2.7
2023-03-15T08:32:06.057Z,2.8
2023-03-15T08:33:06.474Z,2.8
2023-03-15T08:34:06.475Z,2.8
2023-03-15T08:35:06.803Z,2.8
2023-03-15T08:36:06.176Z,2.8
2023-03-15T08:37:06.609Z,3
2023-03-15T08:38:05.888Z,3
2023-03-15T08:39:06.343Z,3
2023-03-15T08:40:06.447Z,3
2023-03-15T08:41:06.465Z,3
2023-03-15T08:42:05.813Z,3.1
2023-03-15T08:43:05.834Z,3.1
2023-03-15T08:44:06.175Z,3.3
2023-03-15T08:45:06.491Z,3.4
2023-03-15T08:46:06.584Z,3.4
2023-03-15T08:47:06.073Z,3.7
2023-03-15T08:48:06.568Z,3.8
2023-03-15T08:49:06.726Z,3.8
2023-03-15T08:50:05.937Z,4
2023-03-15T08:51:06.176Z,4
2023-03-15T08:52:06.016Z,4
2023-03-15T08:53:06.320Z,4
2023-03-15T08:54:06.510Z,4.1
2023-03-15T08:55:05.817Z,4.1
2023-03-15T08:56:06.495Z,4.1
2023-03-15T08:57:06.519Z,4.1
2023-03-15T08:58:08.913Z,4.1
2023-03-15T08:59:06.152Z,4
2023-03-15T09:00:06.323Z,4
2023-03-15T09:01:05.827Z,2
2023-03-15T09:02:06.425Z,4.3
2023-03-15T09:03:06.337Z,4.5
2023-03-15T09:04:05.815Z,4.6
2023-03-15T09:05:06.252Z,4.8
2023-03-15T09:06:06.291Z,5.1
2023-03-15T09:07:06.370Z,5.2
2023-03-15T09:08:06.895Z,5.4
2023-03-15T09:09:06.125Z,5.5
2023-03-15T09:10:09.500Z,5.6
2023-03-15T09:11:06.239Z,5.7
2023-03-15T09:12:06.408Z,5.8
2023-03-15T09:13:06.963Z,6
2023-03-15T09:14:05.737Z,6
2023-03-15T09:15:07.993Z,6.1
2023-03-15T09:16:05.944Z,6.1
2023-03-15T09:17:06.160Z,6.2
2023-03-15T09:18:06.081Z,4
2023-03-15T09:19:06.219Z,6.4
2023-03-15T09:20:06.459Z,6.5
2023-03-15T09:21:06.406Z,6.6
2023-03-15T09:22:39.214Z,6.6
2023-03-15T09:23:06.785Z,6.8
2023-03-15T09:24:05.878Z,6.9
2023-03-15T09:25:06.374Z,7
2023-03-15T09:26:06.662Z,7
2023-03-15T09:27:06.395Z,7.1
2023-03-15T09:28:06.414Z,7.1
2023-03-15T09:29:05.979Z,7.1
2023-03-15T09:30:05.890Z,7
2023-03-15T09:31:06.294Z,7
2023-03-15T09:32:06.735Z,7
2023-03-15T09:33:06.403Z,7
2023-03-15T09:34:06.093Z,7
2023-03-15T09:35:06.531Z,7.1
2023-03-15T09:36:07.310Z,7.3
2023-03-15T09:37:05.977Z,7.3
2023-03-15T09:38:06.322Z,7.4
2023-03-15T09:39:06.459Z,7.4
2023-03-15T09:40:06.776Z,7.5
2023-03-15T09:41:06.217Z,7.5
2023-03-15T09:42:08.778Z,7.6
2023-03-15T09:43:06.937Z,7.4
2023-03-15T09:44:05.930Z,7.4
2023-03-15T09:45:06.356Z,7.5
2023-03-15T09:46:06.984Z,7.6
2023-03-15T09:47:05.873Z,7.4
2023-03-15T09:48:06.374Z,7.4
2023-03-15T09:49:06.616Z,7.2
2023-03-15T09:50:06.152Z,7.1
2023-03-15T09:51:06.654Z,7
2023-03-15T09:52:06.042Z,6.9
2023-03-15T09:53:05.984Z,6.9
2023-03-15T09:54:06.246Z,4
2023-03-15T09:55:06.715Z,7
2023-03-15T09:56:06.414Z,7.3
2023-03-15T09:57:06.510Z,7.3
2023-03-15T09:58:06.652Z,7.4
2023-03-15T09:59:06.059Z,7.5
2023-03-15T10:00:06.212Z,7.4
2023-03-15T10:01:06.706Z,7.2
2023-03-15T10:02:06.157Z,7.2
2023-03-15T10:03:06.107Z,7.2
2023-03-15T10:04:06.744Z,7.3
2023-03-15T10:05:06.586Z,7.4
2023-03-15T10:06:05.800Z,7.5
2023-03-15T10:07:06.274Z,7.6
2023-03-15T10:08:06.686Z,7.6
2023-03-15T10:09:05.776Z,7.8
2023-03-15T10:10:06.082Z,7.9
2023-03-15T10:11:06.556Z,8
2023-03-15T10:12:06.608Z,8.1
2023-03-15T10:13:06.179Z,8.2
2023-03-15T10:14:06.245Z,8.3
2023-03-15T10:15:06.688Z,8.4
2023-03-15T10:16:06.439Z,8.5
2023-03-15T10:17:06.333Z,8.5
2023-03-15T10:18:06.650Z,8.6
2023-03-15T10:19:06.539Z,8.8
2023-03-15T10:20:06.187Z,8.8
2023-03-15T10:21:09.255Z,8.8
2023-03-15T10:22:05.745Z,8.8
2023-03-15T10:23:06.267Z,8.8
2023-03-15T10:24:06.304Z,8.7
2023-03-15T10:25:06.597Z,8.7
2023-03-15T10:26:06.161Z,8.6
2023-03-15T10:27:06.322Z,8.5
2023-03-15T10:28:06.474Z,8.5
2023-03-15T10:29:06.615Z,8.5
2023-03-15T10:30:05.838Z,8.4
2023-03-15T10:31:06.005Z,8.3
2023-03-15T10:32:06.037Z,8.2
2023-03-15T10:33:06.241Z,8.2
2023-03-15T10:34:06.338Z,8.2
2023-03-15T10:35:06.836Z,8.2
2023-03-15T10:36:15.516Z,8.4
2023-03-15T10:37:06.305Z,8.4
2023-03-15T10:38:06.455Z,8.4
2023-03-15T10:39:06.860Z,8.4
2023-03-15T10:40:06.109Z,8.5
2023-03-15T10:41:06.438Z,8.6
2023-03-15T10:42:05.967Z,8.6
2023-03-15T10:43:06.145Z,8.8
2023-03-15T10:44:06.346Z,8.8
2023-03-15T10:45:06.624Z,8.9
2023-03-15T10:46:06.694Z,9
2023-03-15T10:47:24.707Z,9.1
2023-03-15T10:48:06.216Z,8.9
2023-03-15T10:49:06.284Z,8.8
2023-03-15T10:50:06.665Z,8.7
2023-03-15T10:51:06.626Z,8.6
2023-03-15T10:52:05.956Z,6
2023-03-15T10:53:05.948Z,8.7
2023-03-15T10:54:06.496Z,8.8
2023-03-15T10:55:08.836Z,8.8
2023-03-15T10:56:06.115Z,8.8
2023-03-15T10:57:06.110Z,8.8
2023-03-15T10:58:06.573Z,5
2023-03-15T10:59:17.015Z,8.8
2023-03-15T11:00:05.693Z,8.9
2023-03-15T11:01:06.571Z,8.8
2023-03-15T11:02:06.598Z,8.8
2023-03-15T11:03:06.224Z,8.8
2023-03-15T11:04:06.434Z,8.8
2023-03-15T11:05:06.694Z,8.8
2023-03-15T11:06:06.618Z,8.8
2023-03-15T11:07:06.349Z,8.7
2023-03-15T11:08:06.607Z,8.6
2023-03-15T11:09:05.670Z,8.6
2023-03-15T11:10:06.184Z,8.7
2023-03-15T11:11:06.405Z,8.8
2023-03-15T11:12:06.658Z,8.9
2023-03-15T11:13:05.766Z,9
2023-03-15T11:14:06.437Z,9.1
2023-03-15T11:15:08.000Z,9
2023-03-15T11:16:06.470Z,6
2023-03-15T11:17:06.028Z,8.6
2023-03-15T11:18:07.989Z,8.4
2023-03-15T11:19:06.583Z,8.2
2023-03-15T11:20:06.080Z,8
2023-03-15T11:21:06.040Z,7.9
2023-03-15T11:22:06.436Z,7.7
2023-03-15T11:23:06.613Z,7.4
2023-03-15T11:24:05.736Z,7.3
2023-03-15T11:25:06.118Z,7.2
2023-03-15T11:26:06.370Z,7.2
2023-03-15T11:27:06.171Z,7.2
2023-03-15T11:28:06.377Z,7.1
2023-03-15T11:29:05.697Z,7.1
2023-03-15T11:30:05.725Z,7.2
2023-03-15T11:31:06.588Z,7.4
2023-03-15T11:32:05.812Z,7.6
2023-03-15T11:33:05.923Z,7.6
2023-03-15T11:34:06.311Z,7.8
2023-03-15T11:35:06.487Z,7.8
2023-03-15T11:36:05.816Z,8
2023-03-15T11:37:08.788Z,8.1
2023-03-15T11:38:15.536Z,8.3
2023-03-15T11:39:05.849Z,8.5
2023-03-15T11:40:11.479Z,8.8
2023-03-15T11:41:06.117Z,8.9
2023-03-15T11:42:05.685Z,9
2023-03-15T11:43:05.852Z,9.2
2023-03-15T11:44:06.179Z,9.2
2023-03-15T11:45:06.643Z,9.4
2023-03-15T11:46:05.912Z,9.4
2023-03-15T11:47:06.145Z,9.5
2023-03-15T11:48:06.354Z,9.5
2023-03-15T11:49:06.490Z,9.6
2023-03-15T11:50:05.858Z,9.6
2023-03-15T11:51:06.199Z,9.7
2023-03-15T11:52:05.683Z,9.7
2023-03-15T11:53:06.046Z,9.8
2023-03-15T11:54:06.251Z,9.9
2023-03-15T11:55:06.595Z,9.9
2023-03-15T11:56:05.668Z,9.9
2023-03-15T11:57:05.968Z,9.9
2023-03-15T11:58:05.942Z,9.9
2023-03-15T11:59:06.361Z,9.9
2023-03-15T12:00:05.913Z,9.9
2023-03-15T12:01:05.883Z,10
2023-03-15T12:02:06.146Z,10
2023-03-15T12:03:06.347Z,10.1
2023-03-15T12:04:05.757Z,10
2023-03-15T12:05:17.575Z,10
2023-03-15T12:06:06.271Z,10
2023-03-15T12:07:05.711Z,9.8
2023-03-15T12:08:05.918Z,9.7
2023-03-15T12:09:06.050Z,9.6
2023-03-15T12:10:06.562Z,9.6
2023-03-15T12:11:06.003Z,9.4
2023-03-15T12:12:06.344Z,9.3
2023-03-15T12:13:06.632Z,9.2
2023-03-15T12:14:05.598Z,9
2023-03-15T12:15:06.166Z,8.9
2023-03-15T12:16:06.306Z,8.8
2023-03-15T12:17:06.505Z,8.7
2023-03-15T12:18:05.814Z,8.6
2023-03-15T12:19:06.012Z,8.5
2023-03-15T12:20:06.196Z,8.4
2023-03-15T12:21:05.954Z,8.3
2023-03-15T12:22:06.238Z,8.1
2023-03-15T12:23:06.456Z,8
2023-03-15T12:24:06.587Z,8
2023-03-15T12:25:06.054Z,8
2023-03-15T12:26:06.549Z,5
2023-03-15T12:27:05.696Z,8.2
2023-03-15T12:28:05.994Z,8.3
2023-03-15T12:29:06.193Z,8.4
2023-03-15T12:30:06.495Z,8.5
2023-03-15T12:31:05.760Z,8.6
2023-03-15T12:32:05.986Z,8.7
2023-03-15T12:33:06.196Z,8.8
2023-03-15T12:34:06.502Z,8.9
2023-03-15T12:35:05.696Z,8.8
2023-03-15T12:36:05.726Z,8.9
2023-03-15T12:37:06.320Z,8.8
2023-03-15T12:38:06.570Z,8.7
2023-03-15T12:39:05.956Z,8.8
2023-03-15T12:40:06.253Z,8.7
2023-03-15T12:41:05.641Z,8.7
2023-03-15T12:42:06.374Z,8.7
2023-03-15T12:43:06.526Z,8.7
2023-03-15T12:44:05.701Z,8.6
2023-03-15T12:45:06.070Z,6
2023-03-15T12:46:06.503Z,8.5
2023-03-15T12:47:06.520Z,8.5
2023-03-15T12:48:05.778Z,8.4
2023-03-15T12:49:05.909Z,8.4
2023-03-15T12:50:06.062Z,8.4
2023-03-15T12:51:06.091Z,6
2023-03-15T12:52:06.500Z,8.4
2023-03-15T12:53:05.670Z,8.3
2023-03-15T12:54:06.281Z,8.4
2023-03-15T12:55:06.377Z,8.4
2023-03-15T12:56:12.916Z,8.4
2023-03-15T12:57:05.870Z,8.4
2023-03-15T12:58:06.242Z,8.4
2023-03-15T12:59:06.454Z,8.4
2023-03-15T13:00:06.687Z,8.3
2023-03-15T13:01:06.083Z,8.3
2023-03-15T13:02:06.451Z,8.3
2023-03-15T13:03:06.764Z,8.3
2023-03-15T13:04:05.968Z,8.2
2023-03-15T13:05:06.229Z,8.2
2023-03-15T13:06:08.564Z,8.1
2023-03-15T13:07:06.594Z,8.1
2023-03-15T13:08:05.761Z,8
2023-03-15T13:09:06.132Z,8
2023-03-15T13:10:06.422Z,6
2023-03-15T13:11:06.002Z,7.8
2023-03-15T13:12:05.966Z,7.8
2023-03-15T13:13:06.050Z,7.8
2023-03-15T13:14:06.454Z,6
2023-03-15T13:15:06.859Z,7.7
2023-03-15T13:16:06.098Z,7.6
2023-03-15T13:17:07.879Z,6
2023-03-15T13:18:06.402Z,7.6
2023-03-15T13:19:06.431Z,7.7
2023-03-15T13:20:06.625Z,7.7
2023-03-15T13:21:05.917Z,7.7
2023-03-15T13:22:06.147Z,7.7
2023-03-15T13:23:06.057Z,7.7
2023-03-15T13:24:06.599Z,7.7
2023-03-15T13:25:06.632Z,7.7
2023-03-15T13:26:06.056Z,7.9
2023-03-15T13:27:06.414Z,7.8
2023-03-15T13:28:06.717Z,7.9
2023-03-15T13:29:05.949Z,7.9
2023-03-15T13:30:06.549Z,7.9
2023-03-15T13:31:06.030Z,7.9
2023-03-15T13:32:05.903Z,8
2023-03-15T13:33:06.375Z,7.9
2023-03-15T13:34:06.356Z,8
2023-03-15T13:35:05.863Z,8
2023-03-15T13:36:06.310Z,7.9
2023-03-15T13:37:06.304Z,6
2023-03-15T13:38:06.511Z,6
2023-03-15T13:39:05.931Z,8
2023-03-15T13:40:06.424Z,6
2023-03-15T13:41:06.703Z,8
2023-03-15T13:42:06.217Z,7.9
2023-03-15T13:43:06.236Z,7.8
2023-03-15T13:44:06.492Z,7.8
2023-03-15T13:45:06.662Z,7.8
2023-03-15T13:46:06.241Z,7.8
2023-03-15T13:47:06.196Z,7.7
2023-03-15T13:48:06.262Z,7.6
2023-03-15T13:49:05.877Z,6
2023-03-15T13:50:06.283Z,7.6
2023-03-15T13:51:06.208Z,7.6
2023-03-15T13:52:06.771Z,7.6
2023-03-15T13:53:06.068Z,7.6
2023-03-15T13:54:06.142Z,7.5
2023-03-15T13:55:06.648Z,7.6